M I D A S
Marine Information and Data Acquisition System
Tripno 764 of the Zeeleeuw from 2004-08-20 06:23:16 to 2004-08-20 11:06:25
Back to CruiseResearch ActivitiesStationsMapUnderway DataData graphs

EquipmentUnitsComments
TimeDGPSUTC
LatitudeDGPSDM.mWGS84
LongitudeDGPSDM.mWGS84
SpeedMeteo Stationm/sRelative wind speed
DirectionMeteo StationdegRelative wind direction
TemperatureMeteo Stationdeg CelciusAir temperature
PressureMeteo StationPaAtmospheric pressure
HumidityMeteo Station%Relative humidity
Missing or incorrect values are displayed as -999
Metereological data collected by the RV Zeeleeuw from 2004-08-20 06:23:16 to 2004-08-20 11:06:25
Time Latitude Longitude Speed Direction Temperature Pressure Humidity
2004-08-20 06:24 51°13.542 2°56.176 2.6 66 14.8 100570 88
2004-08-20 06:25 51°13.548 2°56.235 4.6 167 14.8 100570 88
2004-08-20 06:26 51°13.544 2°56.219 4.8 226 14.9 100570 89
2004-08-20 06:27 51°13.538 2°56.219 1.2 228 14.9 100570 88
2004-08-20 06:28 51°13.534 2°56.226 3.1 234 14.9 100580 88
2004-08-20 06:29 51°13.547 2°56.183 2.1 43 15 100570 88
2004-08-20 06:30 51°13.612 2°56 3.2 318 15 100570 88
2004-08-20 06:31 51°13.701 2°55.791 4.4 313 15 100570 88
2004-08-20 06:32 51°13.83 2°55.627 1.9 232 15 100570 88
2004-08-20 06:34 51°13.996 2°55.512 1.8 295 15 100570 88
2004-08-20 06:35 51°14.14 2°55.404 5.8 315 15 100560 88
2004-08-20 06:36 51°14.319 2°55.152 10.3 328 15 100560 88
2004-08-20 06:37 51°14.436 2°54.835 12.3 335 15.1 100540 88
2004-08-20 06:38 51°14.436 2°54.528 12.2 337 15.1 100520 89
2004-08-20 06:39 51°14.43 2°54.372 9.4 310 15.1 100530 88
2004-08-20 06:40 51°14.435 2°54.272 7.9 306 15.3 100550 89
2004-08-20 06:41 51°14.437 2°54.217 9.6 312 15.3 100550 89
2004-08-20 06:42 51°14.44 2°54.193 9 301 15.3 100550 89
2004-08-20 06:44 51°14.443 2°54.132 15.6 330 15.3 100550 89
2004-08-20 06:45 51°14.38 2°53.909 16 347 15.4 100520 89
2004-08-20 06:46 51°14.268 2°53.589 16.1 345 15.4 100520 89
2004-08-20 06:47 51°14.155 2°53.282 15.5 346 15.5 100520 90
2004-08-20 06:48 51°14.04 2°52.971 17.6 345 15.5 100520 89
2004-08-20 06:49 51°13.931 2°52.669 16.5 340 15.5 100510 88
2004-08-20 06:50 51°13.813 2°52.345 17.6 344 15.6 100510 89
2004-08-20 06:51 51°13.7 2°52.03 15.7 346 15.5 100500 88
2004-08-20 06:52 51°13.57 2°51.67 17.6 339 15.6 100520 89
2004-08-20 06:53 51°13.45 2°51.331 16 350 15.6 100510 89
2004-08-20 06:54 51°13.339 2°51.016 18.3 344 15.6 100540 89
2004-08-20 06:55 51°13.221 2°50.677 17 347 15.5 100520 88
2004-08-20 06:56 51°13.108 2°50.357 17.7 344 15.6 100530 89
2004-08-20 06:57 51°12.993 2°50.022 18.2 342 15.6 100520 89
2004-08-20 06:58 51°12.884 2°49.705 18.6 342 15.7 100530 90
2004-08-20 06:59 51°12.78 2°49.404 18.2 343 15.7 100500 89
2004-08-20 07:00 51°12.667 2°49.077 18.4 346 15.6 100510 89
2004-08-20 07:01 51°12.558 2°48.753 20.8 354 15.6 100520 88
2004-08-20 07:02 51°12.444 2°48.42 18.6 342 15.6 100540 88
2004-08-20 07:03 51°12.332 2°48.093 17.4 342 15.6 100520 88
2004-08-20 07:04 51°12.226 2°47.772 18.5 336 15.7 100520 89
2004-08-20 07:05 51°12.118 2°47.447 18 337 15.6 100510 87
2004-08-20 07:06 51°12.003 2°47.099 20.4 345 15.7 100530 88
2004-08-20 07:07 51°11.897 2°46.776 18.9 343 15.7 100520 87
2004-08-20 07:08 51°11.782 2°46.418 19.4 341 15.7 100540 89
2004-08-20 07:09 51°11.678 2°46.092 18.7 336 15.7 100530 88
2004-08-20 07:10 51°11.569 2°45.761 18.3 344 15.8 100550 88
2004-08-20 07:12 51°11.459 2°45.42 19.5 339 15.8 100530 89
2004-08-20 07:13 51°11.356 2°45.093 17.2 346 15.8 100540 89
2004-08-20 07:14 51°11.253 2°44.766 18.3 345 15.7 100550 88
2004-08-20 07:15 51°11.149 2°44.441 18.1 338 15.6 100550 89
2004-08-20 07:16 51°11.044 2°44.104 20.1   15.6 100540 90
2004-08-20 07:17 51°10.934 2°43.754 18.9 344 15.5 100540 90
2004-08-20 07:18 51°10.834 2°43.418 18.2 328 15.5 100550 90
2004-08-20 07:19 51°10.824 2°43.064 15.3 327 15.5 100550 90
2004-08-20 07:20 51°10.842 2°42.693 16.2 328 15.5 100540 91
2004-08-20 07:21 51°10.87 2°42.329 17.4 42 15.4 100550 91
2004-08-20 07:22 51°10.904 2°41.943 16.5 323 15.4 100550 91
2004-08-20 07:23 51°10.891 2°41.586 17.9 344 15.4 100550 92
2004-08-20 07:24 51°10.773 2°41.299 17.7 348 15.4 100560 92
2004-08-20 07:25 51°10.597 2°40.972 18.1 351 15.4 100560 92
2004-08-20 07:26 51°10.448 2°40.687 18.7 354 15.3 100560 92
2004-08-20 07:27 51°10.293 2°40.387 16.3 352 15.4 100560 92
2004-08-20 07:28 51°10.134 2°40.072 16 352 15.4 100560 93
2004-08-20 07:29 51°9.978 2°39.763 15.6 348 15.4 100550 92
2004-08-20 07:30 51°9.834 2°39.476 18.7 359 15.5 100590 93
2004-08-20 07:31 51°9.705 2°39.141 16.6 328 15.4 100580 92
2004-08-20 07:32 51°9.803 2°38.828 13.2 302 15.4 100580 92
2004-08-20 07:33 51°9.947 2°38.532 13.6 308 15.4 100600 93
2004-08-20 07:34 51°10.094 2°38.24 12.4 303 15.4 100580 92
2004-08-20 07:35 51°10.191 2°37.913 15.5 320 15.4 100580 93
2004-08-20 07:36 51°10.144 2°37.57 16.6 351 15.3 100550 92
2004-08-20 07:37 51°9.994 2°37.249 17.6 351 15.3 100570 93
2004-08-20 07:38 51°9.843 2°36.929 16.8 346 15.3 100560 92
2004-08-20 07:39 51°9.705 2°36.635 15.9 351 15.3 100570 93
2004-08-20 07:40 51°9.566 2°36.334 16.9 353 15.4 100560 93
2004-08-20 07:41 51°9.464 2°35.952 17 326 15.4 100570 93
2004-08-20 07:42 51°9.55 2°35.611 12.6 291 15.4 100560 93
2004-08-20 07:43 51°9.743 2°35.403 10.2 262 15.4 100590 93
2004-08-20 07:45 51°9.978 2°35.289 5.6 249 15.5 100610 93
2004-08-20 07:46 51°10.202 2°35.313 5.8 213 15.4 100610 93
2004-08-20 07:47 51°10.383 2°35.499 4 147 15.4 100620 93
2004-08-20 07:48 51°10.551 2°35.711 5 150 15.5 100610 93
2004-08-20 07:49 51°10.729 2°35.93 3.4 119 15.5 100610 93
2004-08-20 07:50 51°10.917 2°36.241 3.7 174 15.6 100630 92
2004-08-20 07:51 51°11.062 2°36.473 4.7 157 15.6 100620 93
2004-08-20 07:52 51°11.234 2°36.722 6.7 161 15.6 100610 92
2004-08-20 07:53 51°11.392 2°36.957 4.2 163 15.6 100620 92
2004-08-20 07:54 51°11.564 2°37.229 6.7 144 15.6 100610 92
2004-08-20 07:55 51°11.733 2°37.492 4.7 143 15.5 100610 92
2004-08-20 07:56 51°11.89 2°37.737 5 162 15.5 100620 92
2004-08-20 07:57 51°12.074 2°38.01 6.4 150 15.6 100620 92
2004-08-20 07:58 51°12.232 2°38.253 4.8 168 15.6 100620 91
2004-08-20 07:59 51°12.392 2°38.483 6.7 149 15.5 100620 91
2004-08-20 08:00 51°12.556 2°38.704 3.5 178 15.6 100610 91
2004-08-20 08:01 51°12.721 2°38.905 3.1 168 15.7 100620 91
2004-08-20 08:02 51°12.906 2°39.072 3.3 230 16 100620 91
2004-08-20 08:03 51°13.132 2°39.135 4.7 242 15.9 100610 89
2004-08-20 08:04 51°13.351 2°39.176 5.3 247 15.9 100610 89
2004-08-20 08:05 51°13.561 2°39.177 8.5 241 15.9 100610 89
2004-08-20 08:06 51°13.818 2°39.158 5.4 253 15.8 100610 88
2004-08-20 08:07 51°14.04 2°39.074 11.9 267 15.9 100600 89
2004-08-20 08:08 51°14.196 2°38.827 17.4 305 15.9 100570 89
2004-08-20 08:09 51°14.236 2°38.47 18.2 332 15.9 100530 89
2004-08-20 08:10 51°14.181 2°38.123 18.2 340 16 100520 89
2004-08-20 08:11 51°14.102 2°37.744 18.4 338 16 100520 89
2004-08-20 08:12 51°14.033 2°37.383 19.8 338 16 100520 88
2004-08-20 08:14 51°13.953 2°37.027 19.7 338 16 100520 88
2004-08-20 08:15 51°13.864 2°36.681 18.5 349 16 100520 88
2004-08-20 08:16 51°13.769 2°36.305 18.5 342 16 100530 88
2004-08-20 08:17 51°13.661 2°35.974 19.6 346 16.2 100540 89
2004-08-20 08:18 51°13.552 2°35.644 18.8 342 16.2 100540 88
2004-08-20 08:19 51°13.422 2°35.337 18 353 16.1 100540 88
2004-08-20 08:20 51°13.28 2°35.043 19.1 356 16.2 100560 88
2004-08-20 08:21 51°13.139 2°34.755 18.4 357 16.3 100560 88
2004-08-20 08:22 51°12.987 2°34.441 16.8 351 16.2 100550 87
2004-08-20 08:23 51°12.842 2°34.145 19.2 349 16.3 100570 87
2004-08-20 08:24 51°12.702 2°33.851 20.7 347 16.2 100550 86
2004-08-20 08:25 51°12.576 2°33.542 19 350 16.2 100530 86
2004-08-20 08:26 51°12.448 2°33.231 19.1 347 16.2 100550 86
2004-08-20 08:27 51°12.333 2°32.907 19.4 342 16.2 100560 86
2004-08-20 08:28 51°12.224 2°32.576 19.3 345 16.2 100550 86
2004-08-20 08:29 51°12.113 2°32.244 17.6 342 16.2 100550 85
2004-08-20 08:30 51°12 2°31.91 17 341 16.3 100560 86
2004-08-20 08:31 51°11.892 2°31.541 19.4 342 16.3 100560 86
2004-08-20 08:32 51°11.801 2°31.204 17.3 342 16.4 100550 86
2004-08-20 08:33 51°11.706 2°30.855 19.2 336 16.4 100570 86
2004-08-20 08:34 51°11.617 2°30.515 18.8 340 16.4 100560 86
2004-08-20 08:35 51°11.532 2°30.173 18.1 329 16.4 100540 85
2004-08-20 08:36 51°11.435 2°29.773 18 341 16.5 100540 86
2004-08-20 08:37 51°11.355 2°29.415 17.1 339 16.5 100550 85
2004-08-20 08:38 51°11.272 2°29.029 20.6 335 16.5 100550 85
2004-08-20 08:39 51°11.202 2°28.668 19.9 336 16.6 100550 86
2004-08-20 08:40 51°11.125 2°28.268 19.2 344 16.6 100530 85
2004-08-20 08:41 51°11.058 2°27.897 18.7 342 16.6 100550 85
2004-08-20 08:42 51°10.987 2°27.492 19.7 340 16.7 100540 84
2004-08-20 08:43 51°10.927 2°27.116 17.2 339 16.8 100550 85
2004-08-20 08:44 51°10.873 2°26.736 17.7 333 16.9 100540 85
2004-08-20 08:45 51°10.842 2°26.344 19.8 320 16.9 100540 83
2004-08-20 08:46 51°10.829 2°25.963 18.7 331 16.9 100520 83
2004-08-20 08:47 51°10.815 2°25.581 19.1 321 16.9 100510 83
2004-08-20 08:48 51°10.877 2°25.208 13.7 298 16.9 100520 83
2004-08-20 08:49 51°11.041 2°24.941 14.2 285 16.9 100570 84
2004-08-20 08:50 51°11.234 2°24.713 11.1 280 16.9 100580 84
2004-08-20 08:51 51°11.431 2°24.548 11.5 273 16.9 100590 84
2004-08-20 08:52 51°11.64 2°24.475 6.3 243 16.9 100590 83
2004-08-20 08:53 51°11.841 2°24.531 5.8 221 16.8 100610 83
2004-08-20 08:54 51°12.033 2°24.646 3.5 196 16.8 100600 83
2004-08-20 08:55 51°12.206 2°24.824 5.5 168 17 100610 84
2004-08-20 08:56 51°12.375 2°25.007 4.4 161 17.2 100610 82
2004-08-20 08:57 51°12.552 2°25.215 5.5 174 17.3 100610 82
2004-08-20 08:58 51°12.733 2°25.43 5.9 165 17.3 100600 81
2004-08-20 08:59 51°12.893 2°25.625 4.1 185 17.2 100600 80
2004-08-20 09:00 51°13.062 2°25.828 2.5 206 17.3 100610 80
2004-08-20 09:01 51°13.236 2°26.021 4.5 178 17.4 100610 81
2004-08-20 09:02 51°13.413 2°26.231 5 170 17.9 100610 81
2004-08-20 09:04 51°13.581 2°26.447 6.2 168 17.9 100610 79
2004-08-20 09:05 51°13.741 2°26.639 3.1 189 17.7 100610 79
2004-08-20 09:06 51°13.903 2°26.829 3.4 193 17.6 100600 80
2004-08-20 09:07 51°14.066 2°27.024 5.5 179 17.8 100600 79
2004-08-20 09:08 51°14.241 2°27.237 5.5 175 17.7 100590 80
2004-08-20 09:09 51°14.399 2°27.442 6.1 163 17.8 100600 79
2004-08-20 09:10 51°14.58 2°27.658 4.1 199 17.5 100600 79
2004-08-20 09:11 51°14.744 2°27.848 4.6 171 17.6 100600 79
2004-08-20 09:12 51°14.905 2°28.037 4.3 185 17.9 100600 79
2004-08-20 09:13 51°15.077 2°28.247 3.6 184 18.4 100600 77
2004-08-20 09:14 51°15.263 2°28.465 4.7 174 18.2 100600 76
2004-08-20 09:15 51°15.437 2°28.68 3.7 217 17.8 100600 77
2004-08-20 09:16 51°15.598 2°28.886 6.8 169 17.9 100600 78
2004-08-20 09:17 51°15.753 2°29.102 5.7 154 17.7 100600 78
2004-08-20 09:18 51°15.93 2°29.346 7.6 165 17.5 100590 79
2004-08-20 09:19 51°16.096 2°29.58 7 171 17.4 100600 79
2004-08-20 09:20 51°16.245 2°29.787 2.9 181 17.9 100600 79
2004-08-20 09:21 51°16.401 2°30.001 3.3 170 18.1 100590 78
2004-08-20 09:22 51°16.561 2°30.225 6.1 164 18 100600 77
2004-08-20 09:23 51°16.717 2°30.436 7 163 17.8 100600 79
2004-08-20 09:24 51°16.864 2°30.645 4.7 186 17.7 100600 79
2004-08-20 09:25 51°17.03 2°30.876 7.1 170 17.5 100600 80
2004-08-20 09:27 51°17.213 2°31.113 3.1 184 17.6 100600 79
2004-08-20 09:28 51°17.372 2°31.343 4.5 176 17.9 100600 78
2004-08-20 09:29 51°17.531 2°31.561 6.8 160 18 100590 79
2004-08-20 09:30 51°17.7 2°31.791 5.6 169 17.8 100600 80
2004-08-20 09:31 51°17.857 2°32 4.9 177 17.7 100600 79
2004-08-20 09:32 51°18.022 2°32.243 2.4 200 17.6 100600 79
2004-08-20 09:33 51°18.171 2°32.472 4.6 155 17.8 100600 80
2004-08-20 09:34 51°18.316 2°32.682 6.2 159 17.7 100600 79
2004-08-20 09:35 51°18.462 2°32.904 6.4 162 17.6 100600 80
2004-08-20 09:36 51°18.625 2°33.149 5.3 148 17.5 100600 80
2004-08-20 09:37 51°18.772 2°33.372 4.9 150 17.4 100590 81
2004-08-20 09:38 51°18.924 2°33.578 5.8 144 17.3 100600 80
2004-08-20 09:39 51°19.068 2°33.788 6.3 158 17.3 100600 81
2004-08-20 09:40 51°19.231 2°34.026 3.5 143 17.4 100600 81
2004-08-20 09:41 51°19.382 2°34.233 5.1 176 17.6 100600 82
2004-08-20 09:42 51°19.527 2°34.437 5.3 180 17.8 100590 78
2004-08-20 09:43 51°19.677 2°34.647 4.2 191 18 100590 78
2004-08-20 09:44 51°19.825 2°34.857 5.7 177 18.1 100600 76
2004-08-20 09:45 51°19.984 2°35.082 3 152 18.2 100600 76
2004-08-20 09:46 51°20.134 2°35.295 4.2 175 18.1 100600 78
2004-08-20 09:47 51°20.285 2°35.502 3.7 182 18 100590 78
2004-08-20 09:48 51°20.43 2°35.718 6.2 171 18 100600 78
2004-08-20 09:49 51°20.551 2°35.963 5.2 116 17.8 100600 77
2004-08-20 09:50 51°20.602 2°36.266 10.2 111 17.7 100590 79
2004-08-20 09:51 51°20.579 2°36.576 8.2 105 17.6 100590 78
2004-08-20 09:52 51°20.567 2°36.899 9.2 115 17.6 100580 80
2004-08-20 09:53 51°20.563 2°37.231 8.5 105 17.6 100600 80
2004-08-20 09:54 51°20.565 2°37.571 9.6 124 17.6 100590 80
2004-08-20 09:55 51°20.567 2°37.896 8.6 112 17.5 100590 79
2004-08-20 09:56 51°20.56 2°38.226 8.8 115 17.6 100590 79
2004-08-20 09:57 51°20.555 2°38.553 8.3 109 17.6 100600 79
2004-08-20 09:58 51°20.547 2°38.874 9.9 117 17.5 100590 79
2004-08-20 09:59 51°20.54 2°39.222 9.7 118 17.6 100590 80
2004-08-20 10:00 51°20.526 2°39.543 10.1 115 17.7 100590 80
2004-08-20 10:01 51°20.516 2°39.945 9.6 110 17.6 100590 79
2004-08-20 10:02 51°20.519 2°40.278 9.4 113 17.6 100590 79
2004-08-20 10:04 51°20.507 2°40.629 11.5 110 17.6 100580 80
2004-08-20 10:05 51°20.493 2°40.956 10.7 101 17.7 100580 79
2004-08-20 10:06 51°20.481 2°41.36 10.7 118 17.7 100570 79
2004-08-20 10:07 51°20.469 2°41.691 9.5 113 17.7 100580 79
2004-08-20 10:08 51°20.463 2°42.02 9.4 117 17.7 100580 80
2004-08-20 10:09 51°20.456 2°42.331 11 110 17.8 100580 79
2004-08-20 10:10 51°20.431 2°42.68 9.6 114 17.8 100580 77
2004-08-20 10:11 51°20.403 2°43.058 11.4 124 17.8 100570 77
2004-08-20 10:12 51°20.377 2°43.381 8 112 17.8 100580 77
2004-08-20 10:13 51°20.359 2°43.706 10.4 112 17.8 100580 78
2004-08-20 10:14 51°20.327 2°44.056 11 94 17.8 100570 78
2004-08-20 10:15 51°20.293 2°44.4 11 96 17.8 100580 78
2004-08-20 10:16 51°20.259 2°44.744 12.2 106 17.8 100580 78
2004-08-20 10:17 51°20.242 2°45.083 7.6 100 17.8 100570 78
2004-08-20 10:18 51°20.212 2°45.462 9.8 99 17.7 100590 77
2004-08-20 10:19 51°20.195 2°45.787 11 116 17.7 100580 77
2004-08-20 10:20 51°20.17 2°46.116 10.1 113 17.8 100580 78
2004-08-20 10:21 51°20.15 2°46.435 10.9 105 17.9 100580 78
2004-08-20 10:22 51°20.119 2°46.768 9.6 105 17.9 100580 78
2004-08-20 10:23 51°20.089 2°47.107 12.2 106 17.9 100570 76
2004-08-20 10:25 51°20.057 2°47.488 9.3 106 17.9 100580 75
2004-08-20 10:26 51°20.031 2°47.817 10.5 113 18 100580 77
2004-08-20 10:27 51°19.993 2°48.15 12 94 17.9 100580 76
2004-08-20 10:28 51°19.845 2°48.369 16.1 54 18 100550 77
2004-08-20 10:29 51°19.622 2°48.438 17.9 41 17.9 100540 77
2004-08-20 10:30 51°19.358 2°48.469 19 39 17.8 100520 75
2004-08-20 10:31 51°19.158 2°48.59 18.1 65 17.8 100520 77
2004-08-20 10:32 51°19.014 2°48.85 15.7 82 17.8 100540 76
2004-08-20 10:33 51°18.878 2°49.151 14 85 17.8 100550 75
2004-08-20 10:34 51°18.75 2°49.428 16 82 17.9 100560 77
2004-08-20 10:35 51°18.617 2°49.705 14.1 86 17.9 100560 77
2004-08-20 10:36 51°18.457 2°50.046 12.4 80 17.9 100570 79
2004-08-20 10:37 51°18.318 2°50.332 14.1 89 17.7 100560 78
2004-08-20 10:38 51°18.182 2°50.621 12.5 86 17.6 100570 79
2004-08-20 10:39 51°18.04 2°50.916 11 82 17.5 100580 79
2004-08-20 10:40 51°17.901 2°51.201 13.1 84 17.5 100580 79
2004-08-20 10:41 51°17.751 2°51.511 11 82 17.5 100570 78
2004-08-20 10:42 51°17.604 2°51.777 8.6 73 17.6 100570 78
2004-08-20 10:43 51°17.436 2°52.035 14.5 64 17.8 100570 79
2004-08-20 10:44 51°17.23 2°52.204 14.4 66 17.9 100540 75
2004-08-20 10:45 51°16.989 2°52.331 17.1 49 18 100550 75
2004-08-20 10:46 51°16.736 2°52.469 17.7 50 18.1 100540 72
2004-08-20 10:47 51°16.523 2°52.592 16.5 44 18.2 100540 73
2004-08-20 10:48 51°16.299 2°52.709 18.7 50 18.3 100520 72
2004-08-20 10:49 51°16.101 2°52.86 16.9 67 18.2 100540 72
2004-08-20 10:51 51°15.895 2°53.026 15.7 55 18.2 100550 74
2004-08-20 10:51 51°15.696 2°53.179 15.6 58 18.2 100550 72
2004-08-20 10:53 51°15.494 2°53.339 14.7 64 18.3 100550 73
2004-08-20 10:54 51°15.378 2°53.414 12.5 62 18.3 100570 73
2004-08-20 10:54 51°15.317 2°53.434 11.6 68 18.3 100570 73
2004-08-20 10:56 51°15.278 2°53.451 11.4 82 18.4 100580 74
2004-08-20 10:57 51°15.251 2°53.46 9.9 73 18.4 100580 74
2004-08-20 10:58 51°15.234 2°53.466 9.4 77 18.4 100570 73
2004-08-20 10:59 51°15.187 2°53.512 8.3 75 18.4 100570 72
2004-08-20 11:00 51°15.071 2°53.681 11.6 78 18.4 100570 72
2004-08-20 11:01 51°14.926 2°53.914 13.1 101 18.4 100570 73
2004-08-20 11:02 51°14.79 2°54.159 13.4 76 18.4 100560 73
2004-08-20 11:03 51°14.666 2°54.405 15.6 83 18.3 100560 75
2004-08-20 11:04 51°14.538 2°54.669 16.2 87 18.2 100580 74
2004-08-20 11:05 51°14.417 2°54.924 13.6 86 18.1 100590 75
2004-08-20 11:06 51°14.311 2°55.169 10.8 84 18.1 100590 74